This is the latest recevied weather packets stored in our database for station/object ED2YAA-3. If no packets are shown the sender has not sent any weather packets the latest 10 day(s).
| Time | Temp. | Humidity | Pressure | Rain* | Wind** | Luminosity | Snow |
|---|---|---|---|---|---|---|---|
| 1777214128 | 21.67° C | 60% | 997.5 hPa | 0 mm | - | - | - |
| 1777210694 | 21.67° C | 57% | 998 hPa | 0 mm | - | - | - |
| 1777210530 | 21.67° C | 57% | 997.9 hPa | 0 mm | - | - | - |
| 1777207096 | 21.11° C | 59% | 998.2 hPa | 0 mm | - | - | - |
| 1777206929 | 21.11° C | 59% | 998.3 hPa | 0 mm | - | - | - |
| 1777203495 | 20.56° C | 60% | 998.9 hPa | 0 mm | - | - | - |
| 1777203329 | 20.56° C | 61% | 998.9 hPa | 0 mm | - | - | - |
| 1777199895 | 18.89° C | 65% | 999.7 hPa | 0 mm | - | - | - |
| 1777199728 | 18.89° C | 65% | 999.6 hPa | 0 mm | - | - | - |
| 1777196294 | 19.44° C | 66% | 1000.1 hPa | 0 mm | - | - | - |
| 1777196128 | 19.44° C | 66% | 1000.3 hPa | 0 mm | - | - | - |
| 1777192694 | 16.67° C | 73% | 1000.3 hPa | 0 mm | - | - | - |
| 1777192529 | 16.67° C | 74% | 1000.3 hPa | 0 mm | - | - | - |
| 1777189095 | 15.56° C | 77% | 1000.3 hPa | 0 mm | - | - | - |
| 1777186969 | 15° C | 78% | 1000.3 hPa | 0 mm | - | - | - |
| 1777185328 | 14.44° C | 79% | 1000 hPa | 0 mm | - | - | - |
| 1777183371 | 14.44° C | 79% | 999.6 hPa | 0 mm | - | - | - |
| 1777181728 | 14.44° C | 79% | 999.5 hPa | 0 mm | - | - | - |
| 1777179770 | 14.44° C | 79% | 999.4 hPa | 0 mm | - | - | - |
| 1777178127 | 14.44° C | 79% | 999.4 hPa | 0 mm | - | - | - |
| 1777176169 | 14.44° C | 79% | 999.2 hPa | 0 mm | - | - | - |
| 1777174528 | 14.44° C | 79% | 999.3 hPa | 0 mm | - | - | - |
| 1777172570 | 15° C | 80% | 999.1 hPa | 0 mm | - | - | - |
| 1777170927 | 15° C | 80% | 999.3 hPa | 0 mm | - | - | - |
| 1777168970 | 15° C | 79% | 999.3 hPa | 0 mm | - | - | - |
* Rain latest hour (hover to see other rain measurements)
** Current wind speed in m/s (hover to see current wind gust speed)